sensor_id;sensor_type;location;lat;lon;timestamp;temperature;humidity
20463;DHT22;10390;53.566;9.980;2023-12-04T00:01:15;25.20;1.00
20463;DHT22;10390;53.566;9.980;2023-12-04T00:03:41;25.10;1.00
20463;DHT22;10390;53.566;9.980;2023-12-04T00:06:06;25.10;1.00
20463;DHT22;10390;53.566;9.980;2023-12-04T00:08:32;25.10;1.00
20463;DHT22;10390;53.566;9.980;2023-12-04T00:10:59;25.10;1.00
20463;DHT22;10390;53.566;9.980;2023-12-04T00:13:24;25.00;1.00
20463;DHT22;10390;53.566;9.980;2023-12-04T00:15:50;25.10;1.00
20463;DHT22;10390;53.566;9.980;2023-12-04T00:18:16;25.00;1.00
20463;DHT22;10390;53.566;9.980;2023-12-04T00:20:42;25.00;1.00
20463;DHT22;10390;53.566;9.980;2023-12-04T00:23:07;24.90;1.00
20463;DHT22;10390;53.566;9.980;2023-12-04T00:25:33;24.90;1.00
20463;DHT22;10390;53.566;9.980;2023-12-04T00:27:58;24.90;1.00
20463;DHT22;10390;53.566;9.980;2023-12-04T00:30:24;25.00;1.00
20463;DHT22;10390;53.566;9.980;2023-12-04T00:32:50;25.00;1.00
20463;DHT22;10390;53.566;9.980;2023-12-04T00:35:15;25.10;1.00
20463;DHT22;10390;53.566;9.980;2023-12-04T00:37:41;25.10;1.00
20463;DHT22;10390;53.566;9.980;2023-12-04T00:40:07;25.00;1.00
20463;DHT22;10390;53.566;9.980;2023-12-04T00:42:33;25.00;1.00
20463;DHT22;10390;53.566;9.980;2023-12-04T00:44:59;25.00;1.00
20463;DHT22;10390;53.566;9.980;2023-12-04T00:47:24;25.10;1.00
20463;DHT22;10390;53.566;9.980;2023-12-04T00:49:50;25.10;1.00
20463;DHT22;10390;53.566;9.980;2023-12-04T00:52:15;25.10;1.00
20463;DHT22;10390;53.566;9.980;2023-12-04T00:54:41;25.10;1.00
20463;DHT22;10390;53.566;9.980;2023-12-04T00:57:07;25.10;1.00
20463;DHT22;10390;53.566;9.980;2023-12-04T00:59:32;25.10;1.00
20463;DHT22;10390;53.566;9.980;2023-12-04T01:01:58;25.10;1.00
20463;DHT22;10390;53.566;9.980;2023-12-04T01:04:23;25.00;1.00
20463;DHT22;10390;53.566;9.980;2023-12-04T01:06:49;25.00;1.00
20463;DHT22;10390;53.566;9.980;2023-12-04T01:09:15;25.00;1.00
20463;DHT22;10390;53.566;9.980;2023-12-04T01:11:40;25.00;1.00
20463;DHT22;10390;53.566;9.980;2023-12-04T01:14:06;24.90;1.00
20463;DHT22;10390;53.566;9.980;2023-12-04T01:16:31;24.90;1.00
20463;DHT22;10390;53.566;9.980;2023-12-04T01:18:57;24.90;1.00
20463;DHT22;10390;53.566;9.980;2023-12-04T01:21:23;24.90;1.00
20463;DHT22;10390;53.566;9.980;2023-12-04T01:23:48;24.90;1.00
20463;DHT22;10390;53.566;9.980;2023-12-04T01:26:14;24.80;1.00
20463;DHT22;10390;53.566;9.980;2023-12-04T01:28:39;24.90;1.00
20463;DHT22;10390;53.566;9.980;2023-12-04T01:31:06;24.90;1.00
20463;DHT22;10390;53.566;9.980;2023-12-04T01:33:32;24.80;1.00
20463;DHT22;10390;53.566;9.980;2023-12-04T01:35:57;24.80;1.00
20463;DHT22;10390;53.566;9.980;2023-12-04T01:38:23;24.80;1.00
20463;DHT22;10390;53.566;9.980;2023-12-04T01:40:48;24.80;1.00
20463;DHT22;10390;53.566;9.980;2023-12-04T01:43:14;24.80;1.00
20463;DHT22;10390;53.566;9.980;2023-12-04T01:45:40;24.90;1.00
20463;DHT22;10390;53.566;9.980;2023-12-04T01:48:07;24.80;1.00
20463;DHT22;10390;53.566;9.980;2023-12-04T01:50:34;24.80;1.00
20463;DHT22;10390;53.566;9.980;2023-12-04T01:53:00;24.90;1.00
20463;DHT22;10390;53.566;9.980;2023-12-04T01:55:27;24.90;1.00
20463;DHT22;10390;53.566;9.980;2023-12-04T01:57:53;24.90;1.00
20463;DHT22;10390;53.566;9.980;2023-12-04T02:00:21;24.90;1.00
20463;DHT22;10390;53.566;9.980;2023-12-04T02:02:46;24.90;1.00
20463;DHT22;10390;53.566;9.980;2023-12-04T02:05:13;25.00;1.00
20463;DHT22;10390;53.566;9.980;2023-12-04T02:07:41;25.00;1.00
20463;DHT22;10390;53.566;9.980;2023-12-04T02:10:07;25.00;1.00
20463;DHT22;10390;53.566;9.980;2023-12-04T02:12:34;25.00;1.00
20463;DHT22;10390;53.566;9.980;2023-12-04T02:15:00;25.00;1.00
20463;DHT22;10390;53.566;9.980;2023-12-04T02:17:26;25.00;1.00
20463;DHT22;10390;53.566;9.980;2023-12-04T02:19:53;24.90;1.00
20463;DHT22;10390;53.566;9.980;2023-12-04T02:22:19;24.90;1.00
20463;DHT22;10390;53.566;9.980;2023-12-04T02:24:48;24.90;1.00
20463;DHT22;10390;53.566;9.980;2023-12-04T02:27:44;24.90;1.00
20463;DHT22;10390;53.566;9.980;2023-12-04T02:30:13;24.90;1.00
20463;DHT22;10390;53.566;9.980;2023-12-04T02:32:45;24.90;1.00
20463;DHT22;10390;53.566;9.980;2023-12-04T02:35:12;24.90;1.00
20463;DHT22;10390;53.566;9.980;2023-12-04T02:37:39;24.90;1.00
20463;DHT22;10390;53.566;9.980;2023-12-04T02:40:06;24.80;1.00
20463;DHT22;10390;53.566;9.980;2023-12-04T02:42:32;24.90;1.00
20463;DHT22;10390;53.566;9.980;2023-12-04T02:44:58;24.90;1.00
20463;DHT22;10390;53.566;9.980;2023-12-04T02:47:24;24.90;1.00
20463;DHT22;10390;53.566;9.980;2023-12-04T02:49:49;24.90;1.00
20463;DHT22;10390;53.566;9.980;2023-12-04T02:52:15;24.90;1.00
20463;DHT22;10390;53.566;9.980;2023-12-04T02:54:41;25.00;1.00
20463;DHT22;10390;53.566;9.980;2023-12-04T02:57:06;25.00;1.00
20463;DHT22;10390;53.566;9.980;2023-12-04T02:59:32;25.00;1.00
20463;DHT22;10390;53.566;9.980;2023-12-04T03:01:57;25.00;1.00
20463;DHT22;10390;53.566;9.980;2023-12-04T03:04:23;25.00;1.00
20463;DHT22;10390;53.566;9.980;2023-12-04T03:06:49;25.00;1.00
20463;DHT22;10390;53.566;9.980;2023-12-04T03:09:14;25.00;1.00
20463;DHT22;10390;53.566;9.980;2023-12-04T03:11:40;25.00;1.00
20463;DHT22;10390;53.566;9.980;2023-12-04T03:14:07;25.00;1.00
20463;DHT22;10390;53.566;9.980;2023-12-04T03:16:33;25.00;1.00
20463;DHT22;10390;53.566;9.980;2023-12-04T03:18:58;25.00;1.00
20463;DHT22;10390;53.566;9.980;2023-12-04T03:21:24;24.90;1.00
20463;DHT22;10390;53.566;9.980;2023-12-04T03:23:50;24.90;1.00
20463;DHT22;10390;53.566;9.980;2023-12-04T03:26:16;24.90;1.00
20463;DHT22;10390;53.566;9.980;2023-12-04T03:28:41;24.90;1.00
20463;DHT22;10390;53.566;9.980;2023-12-04T03:31:07;24.90;1.00
20463;DHT22;10390;53.566;9.980;2023-12-04T03:33:33;24.90;1.00
20463;DHT22;10390;53.566;9.980;2023-12-04T03:35:59;24.90;1.00
20463;DHT22;10390;53.566;9.980;2023-12-04T03:38:24;25.00;1.00
20463;DHT22;10390;53.566;9.980;2023-12-04T03:40:50;24.90;1.00
20463;DHT22;10390;53.566;9.980;2023-12-04T03:43:16;25.00;1.00
20463;DHT22;10390;53.566;9.980;2023-12-04T03:45:41;25.00;1.00
20463;DHT22;10390;53.566;9.980;2023-12-04T03:48:07;25.00;1.00
20463;DHT22;10390;53.566;9.980;2023-12-04T03:50:32;25.00;1.00
20463;DHT22;10390;53.566;9.980;2023-12-04T03:52:58;25.10;1.00
20463;DHT22;10390;53.566;9.980;2023-12-04T03:55:24;25.10;1.00
20463;DHT22;10390;53.566;9.980;2023-12-04T03:57:49;25.10;1.00
20463;DHT22;10390;53.566;9.980;2023-12-04T04:00:15;25.10;1.00
20463;DHT22;10390;53.566;9.980;2023-12-04T04:02:43;25.10;1.00
20463;DHT22;10390;53.566;9.980;2023-12-04T04:05:09;25.10;1.00
20463;DHT22;10390;53.566;9.980;2023-12-04T04:07:35;25.10;1.00
20463;DHT22;10390;53.566;9.980;2023-12-04T04:10:00;25.10;1.00
20463;DHT22;10390;53.566;9.980;2023-12-04T04:12:27;25.10;1.00
20463;DHT22;10390;53.566;9.980;2023-12-04T04:14:52;25.00;1.00
20463;DHT22;10390;53.566;9.980;2023-12-04T04:17:18;25.00;1.00
20463;DHT22;10390;53.566;9.980;2023-12-04T04:19:44;25.00;1.00
20463;DHT22;10390;53.566;9.980;2023-12-04T04:22:09;25.00;1.00
20463;DHT22;10390;53.566;9.980;2023-12-04T04:24:35;25.00;1.00
20463;DHT22;10390;53.566;9.980;2023-12-04T04:27:00;25.00;1.00
20463;DHT22;10390;53.566;9.980;2023-12-04T04:29:26;25.10;1.00
20463;DHT22;10390;53.566;9.980;2023-12-04T04:31:51;25.10;1.00
20463;DHT22;10390;53.566;9.980;2023-12-04T04:34:18;25.10;1.00
20463;DHT22;10390;53.566;9.980;2023-12-04T04:36:43;25.10;1.00
20463;DHT22;10390;53.566;9.980;2023-12-04T04:39:11;25.10;1.00
20463;DHT22;10390;53.566;9.980;2023-12-04T04:41:37;25.10;1.00
20463;DHT22;10390;53.566;9.980;2023-12-04T04:44:03;25.20;1.00
20463;DHT22;10390;53.566;9.980;2023-12-04T04:46:28;25.10;1.00
20463;DHT22;10390;53.566;9.980;2023-12-04T04:48:54;25.10;1.00
20463;DHT22;10390;53.566;9.980;2023-12-04T04:51:19;25.20;1.00
20463;DHT22;10390;53.566;9.980;2023-12-04T04:53:45;25.20;1.00
20463;DHT22;10390;53.566;9.980;2023-12-04T04:56:11;25.20;1.00
20463;DHT22;10390;53.566;9.980;2023-12-04T04:58:36;25.30;1.00
20463;DHT22;10390;53.566;9.980;2023-12-04T05:01:02;25.30;1.00
20463;DHT22;10390;53.566;9.980;2023-12-04T05:03:28;25.30;1.00
20463;DHT22;10390;53.566;9.980;2023-12-04T05:05:53;25.30;1.00
20463;DHT22;10390;53.566;9.980;2023-12-04T05:08:19;25.20;1.00
20463;DHT22;10390;53.566;9.980;2023-12-04T05:10:44;25.20;1.00
20463;DHT22;10390;53.566;9.980;2023-12-04T05:13:10;25.10;1.00
20463;DHT22;10390;53.566;9.980;2023-12-04T05:15:36;25.10;1.00
20463;DHT22;10390;53.566;9.980;2023-12-04T05:18:01;25.10;1.00
20463;DHT22;10390;53.566;9.980;2023-12-04T05:20:27;25.10;1.00
20463;DHT22;10390;53.566;9.980;2023-12-04T05:22:52;25.10;1.00
20463;DHT22;10390;53.566;9.980;2023-12-04T05:25:18;25.10;1.00
20463;DHT22;10390;53.566;9.980;2023-12-04T05:27:43;25.20;1.00
20463;DHT22;10390;53.566;9.980;2023-12-04T05:30:09;25.20;1.00
20463;DHT22;10390;53.566;9.980;2023-12-04T05:32:35;25.20;1.00
20463;DHT22;10390;53.566;9.980;2023-12-04T05:35:01;25.20;1.00
20463;DHT22;10390;53.566;9.980;2023-12-04T05:37:26;25.20;1.00
20463;DHT22;10390;53.566;9.980;2023-12-04T05:39:52;25.20;1.00
20463;DHT22;10390;53.566;9.980;2023-12-04T05:42:17;25.20;1.00
20463;DHT22;10390;53.566;9.980;2023-12-04T05:44:43;25.30;1.00
20463;DHT22;10390;53.566;9.980;2023-12-04T05:47:09;25.20;1.00
20463;DHT22;10390;53.566;9.980;2023-12-04T05:49:34;25.30;1.00
20463;DHT22;10390;53.566;9.980;2023-12-04T05:52:00;25.20;1.00
20463;DHT22;10390;53.566;9.980;2023-12-04T05:54:26;25.20;1.00
20463;DHT22;10390;53.566;9.980;2023-12-04T05:56:51;25.30;1.00
20463;DHT22;10390;53.566;9.980;2023-12-04T05:59:17;25.30;1.00
20463;DHT22;10390;53.566;9.980;2023-12-04T06:01:42;25.20;1.00
20463;DHT22;10390;53.566;9.980;2023-12-04T06:04:08;25.20;1.00
20463;DHT22;10390;53.566;9.980;2023-12-04T06:06:34;25.20;1.00
20463;DHT22;10390;53.566;9.980;2023-12-04T06:08:59;25.20;1.00
20463;DHT22;10390;53.566;9.980;2023-12-04T06:11:25;25.20;1.00
20463;DHT22;10390;53.566;9.980;2023-12-04T06:13:50;25.10;1.00
20463;DHT22;10390;53.566;9.980;2023-12-04T06:16:16;25.20;1.00
20463;DHT22;10390;53.566;9.980;2023-12-04T06:18:43;25.10;1.00
20463;DHT22;10390;53.566;9.980;2023-12-04T06:21:08;25.10;1.00
20463;DHT22;10390;53.566;9.980;2023-12-04T06:23:34;25.10;1.00
20463;DHT22;10390;53.566;9.980;2023-12-04T06:26:00;25.10;1.00
20463;DHT22;10390;53.566;9.980;2023-12-04T06:28:26;25.10;1.00
20463;DHT22;10390;53.566;9.980;2023-12-04T06:30:52;25.00;1.00
20463;DHT22;10390;53.566;9.980;2023-12-04T06:33:18;25.00;1.00
20463;DHT22;10390;53.566;9.980;2023-12-04T06:35:45;25.00;1.00
20463;DHT22;10390;53.566;9.980;2023-12-04T06:38:15;25.10;1.00
20463;DHT22;10390;53.566;9.980;2023-12-04T06:40:41;25.00;1.00
20463;DHT22;10390;53.566;9.980;2023-12-04T06:43:07;25.00;1.00
20463;DHT22;10390;53.566;9.980;2023-12-04T06:45:33;25.10;1.00
20463;DHT22;10390;53.566;9.980;2023-12-04T06:47:59;25.10;1.00
20463;DHT22;10390;53.566;9.980;2023-12-04T06:50:26;25.10;1.00
20463;DHT22;10390;53.566;9.980;2023-12-04T06:52:51;25.10;1.00
20463;DHT22;10390;53.566;9.980;2023-12-04T06:55:17;25.10;1.00
20463;DHT22;10390;53.566;9.980;2023-12-04T06:57:43;25.10;1.00
20463;DHT22;10390;53.566;9.980;2023-12-04T07:00:09;25.10;1.00
20463;DHT22;10390;53.566;9.980;2023-12-04T07:02:39;25.10;1.00
20463;DHT22;10390;53.566;9.980;2023-12-04T07:05:05;25.10;1.00
20463;DHT22;10390;53.566;9.980;2023-12-04T07:07:31;25.10;1.00
20463;DHT22;10390;53.566;9.980;2023-12-04T07:09:57;25.10;1.00
20463;DHT22;10390;53.566;9.980;2023-12-04T07:12:23;25.10;1.00
20463;DHT22;10390;53.566;9.980;2023-12-04T07:14:48;25.00;1.00
20463;DHT22;10390;53.566;9.980;2023-12-04T07:17:14;24.90;1.00
20463;DHT22;10390;53.566;9.980;2023-12-04T07:19:41;24.90;1.00
20463;DHT22;10390;53.566;9.980;2023-12-04T07:22:07;24.80;1.00
20463;DHT22;10390;53.566;9.980;2023-12-04T07:24:33;24.80;1.00
20463;DHT22;10390;53.566;9.980;2023-12-04T07:26:59;24.80;1.00
20463;DHT22;10390;53.566;9.980;2023-12-04T07:29:24;24.90;1.00
20463;DHT22;10390;53.566;9.980;2023-12-04T07:31:51;24.80;1.00
20463;DHT22;10390;53.566;9.980;2023-12-04T07:34:16;24.90;1.00
20463;DHT22;10390;53.566;9.980;2023-12-04T07:36:42;24.80;1.00
20463;DHT22;10390;53.566;9.980;2023-12-04T07:39:10;24.80;1.00
20463;DHT22;10390;53.566;9.980;2023-12-04T07:41:36;24.80;1.00
20463;DHT22;10390;53.566;9.980;2023-12-04T07:44:02;24.80;1.00
20463;DHT22;10390;53.566;9.980;2023-12-04T07:46:28;24.80;1.00
20463;DHT22;10390;53.566;9.980;2023-12-04T07:48:53;24.80;1.00
20463;DHT22;10390;53.566;9.980;2023-12-04T07:51:19;24.80;1.00
20463;DHT22;10390;53.566;9.980;2023-12-04T07:53:44;24.80;1.00
20463;DHT22;10390;53.566;9.980;2023-12-04T07:56:11;24.80;1.00
20463;DHT22;10390;53.566;9.980;2023-12-04T07:58:37;24.80;1.00
20463;DHT22;10390;53.566;9.980;2023-12-04T08:01:03;24.90;1.00
20463;DHT22;10390;53.566;9.980;2023-12-04T08:03:29;24.90;1.00
20463;DHT22;10390;53.566;9.980;2023-12-04T08:05:54;24.90;1.00
20463;DHT22;10390;53.566;9.980;2023-12-04T08:08:20;24.90;1.00
20463;DHT22;10390;53.566;9.980;2023-12-04T08:10:47;24.90;1.00
20463;DHT22;10390;53.566;9.980;2023-12-04T08:13:12;24.80;1.00
20463;DHT22;10390;53.566;9.980;2023-12-04T08:15:38;24.80;1.00
20463;DHT22;10390;53.566;9.980;2023-12-04T08:18:04;24.70;1.00
20463;DHT22;10390;53.566;9.980;2023-12-04T08:20:29;24.70;1.00
20463;DHT22;10390;53.566;9.980;2023-12-04T08:22:55;24.70;1.00
20463;DHT22;10390;53.566;9.980;2023-12-04T08:25:21;24.70;1.00
20463;DHT22;10390;53.566;9.980;2023-12-04T08:27:46;24.70;1.00
20463;DHT22;10390;53.566;9.980;2023-12-04T08:30:13;24.70;1.00
20463;DHT22;10390;53.566;9.980;2023-12-04T08:32:39;24.70;1.00
20463;DHT22;10390;53.566;9.980;2023-12-04T08:35:05;24.70;1.00
20463;DHT22;10390;53.566;9.980;2023-12-04T08:37:31;24.70;1.00
20463;DHT22;10390;53.566;9.980;2023-12-04T08:39:57;24.70;1.00
20463;DHT22;10390;53.566;9.980;2023-12-04T08:42:23;24.70;1.00
20463;DHT22;10390;53.566;9.980;2023-12-04T08:44:48;24.60;1.00
20463;DHT22;10390;53.566;9.980;2023-12-04T08:47:14;24.70;1.00
20463;DHT22;10390;53.566;9.980;2023-12-04T08:49:40;24.70;1.00
20463;DHT22;10390;53.566;9.980;2023-12-04T08:52:09;24.70;1.00
20463;DHT22;10390;53.566;9.980;2023-12-04T08:54:38;24.70;1.00
20463;DHT22;10390;53.566;9.980;2023-12-04T08:57:04;24.70;1.00
20463;DHT22;10390;53.566;9.980;2023-12-04T08:59:29;24.70;1.00
20463;DHT22;10390;53.566;9.980;2023-12-04T09:01:55;24.80;1.00
20463;DHT22;10390;53.566;9.980;2023-12-04T09:04:21;24.80;1.00
20463;DHT22;10390;53.566;9.980;2023-12-04T09:06:47;24.80;1.00
20463;DHT22;10390;53.566;9.980;2023-12-04T09:09:12;24.80;1.00
20463;DHT22;10390;53.566;9.980;2023-12-04T09:11:43;24.80;1.00
20463;DHT22;10390;53.566;9.980;2023-12-04T09:14:09;24.70;1.00
20463;DHT22;10390;53.566;9.980;2023-12-04T09:16:35;24.80;1.00
20463;DHT22;10390;53.566;9.980;2023-12-04T09:19:01;24.70;1.00
20463;DHT22;10390;53.566;9.980;2023-12-04T09:21:26;24.70;1.00
20463;DHT22;10390;53.566;9.980;2023-12-04T09:23:52;24.70;1.00
20463;DHT22;10390;53.566;9.980;2023-12-04T09:26:18;24.60;1.00
20463;DHT22;10390;53.566;9.980;2023-12-04T09:28:44;24.60;1.00
20463;DHT22;10390;53.566;9.980;2023-12-04T09:31:10;24.60;1.00
20463;DHT22;10390;53.566;9.980;2023-12-04T09:33:35;24.60;1.00
20463;DHT22;10390;53.566;9.980;2023-12-04T09:36:02;24.60;1.00
20463;DHT22;10390;53.566;9.980;2023-12-04T09:38:28;24.60;1.00
20463;DHT22;10390;53.566;9.980;2023-12-04T09:40:55;24.70;1.00
20463;DHT22;10390;53.566;9.980;2023-12-04T09:43:23;24.70;1.00
20463;DHT22;10390;53.566;9.980;2023-12-04T09:45:49;24.70;1.00
20463;DHT22;10390;53.566;9.980;2023-12-04T09:48:15;24.70;1.00
20463;DHT22;10390;53.566;9.980;2023-12-04T09:50:41;24.70;1.00
20463;DHT22;10390;53.566;9.980;2023-12-04T09:53:10;24.80;1.00
20463;DHT22;10390;53.566;9.980;2023-12-04T09:55:36;24.80;1.00
20463;DHT22;10390;53.566;9.980;2023-12-04T09:58:02;24.80;1.00
20463;DHT22;10390;53.566;9.980;2023-12-04T10:00:31;24.90;1.00
20463;DHT22;10390;53.566;9.980;2023-12-04T10:02:58;24.90;1.00
20463;DHT22;10390;53.566;9.980;2023-12-04T10:05:25;24.90;1.00
20463;DHT22;10390;53.566;9.980;2023-12-04T10:07:50;24.90;1.00
20463;DHT22;10390;53.566;9.980;2023-12-04T10:10:16;24.90;1.00
20463;DHT22;10390;53.566;9.980;2023-12-04T10:12:43;24.80;1.00
20463;DHT22;10390;53.566;9.980;2023-12-04T10:15:10;24.80;1.00
20463;DHT22;10390;53.566;9.980;2023-12-04T10:17:37;24.80;1.00
20463;DHT22;10390;53.566;9.980;2023-12-04T10:20:10;24.80;1.00
20463;DHT22;10390;53.566;9.980;2023-12-04T10:23:01;24.70;1.00
20463;DHT22;10390;53.566;9.980;2023-12-04T10:25:28;24.60;1.00
20463;DHT22;10390;53.566;9.980;2023-12-04T10:28:07;24.60;1.00
20463;DHT22;10390;53.566;9.980;2023-12-04T10:30:33;24.60;1.00
20463;DHT22;10390;53.566;9.980;2023-12-04T10:33:02;24.60;1.00
20463;DHT22;10390;53.566;9.980;2023-12-04T10:35:32;24.60;1.00
20463;DHT22;10390;53.566;9.980;2023-12-04T10:37:59;24.50;1.00
20463;DHT22;10390;53.566;9.980;2023-12-04T10:40:30;24.60;1.00
20463;DHT22;10390;53.566;9.980;2023-12-04T10:45:38;24.60;1.00
20463;DHT22;10390;53.566;9.980;2023-12-04T10:48:05;24.60;1.00
20463;DHT22;10390;53.566;9.980;2023-12-04T10:50:35;24.60;1.00
20463;DHT22;10390;53.566;9.980;2023-12-04T10:53:04;24.60;1.00
20463;DHT22;10390;53.566;9.980;2023-12-04T10:55:31;24.60;1.00
20463;DHT22;10390;53.566;9.980;2023-12-04T10:57:57;24.50;1.00
20463;DHT22;10390;53.566;9.980;2023-12-04T11:00:24;24.70;1.00
20463;DHT22;10390;53.566;9.980;2023-12-04T11:02:51;24.60;1.00
20463;DHT22;10390;53.566;9.980;2023-12-04T11:05:19;24.60;1.00
20463;DHT22;10390;53.566;9.980;2023-12-04T11:08:08;24.60;1.00
20463;DHT22;10390;53.566;9.980;2023-12-04T11:13:24;24.60;1.00
20463;DHT22;10390;53.566;9.980;2023-12-04T11:15:52;24.70;1.00
20463;DHT22;10390;53.566;9.980;2023-12-04T11:18:24;24.70;1.00
20463;DHT22;10390;53.566;9.980;2023-12-04T11:21:02;24.70;1.00
20463;DHT22;10390;53.566;9.980;2023-12-04T11:23:30;24.70;1.00
20463;DHT22;10390;53.566;9.980;2023-12-04T11:25:57;24.70;1.00
20463;DHT22;10390;53.566;9.980;2023-12-04T11:28:24;24.70;1.00
20463;DHT22;10390;53.566;9.980;2023-12-04T11:30:51;24.70;1.00
20463;DHT22;10390;53.566;9.980;2023-12-04T11:33:18;24.70;1.00
20463;DHT22;10390;53.566;9.980;2023-12-04T11:35:44;24.70;1.00
20463;DHT22;10390;53.566;9.980;2023-12-04T11:38:13;24.70;1.00
20463;DHT22;10390;53.566;9.980;2023-12-04T11:40:40;24.70;1.00
20463;DHT22;10390;53.566;9.980;2023-12-04T11:43:27;24.60;1.00
20463;DHT22;10390;53.566;9.980;2023-12-04T11:45:53;24.70;1.00
20463;DHT22;10390;53.566;9.980;2023-12-04T11:48:23;24.70;1.00
20463;DHT22;10390;53.566;9.980;2023-12-04T11:50:49;24.60;1.00
20463;DHT22;10390;53.566;9.980;2023-12-04T11:53:16;24.60;1.00
20463;DHT22;10390;53.566;9.980;2023-12-04T11:55:42;24.60;1.00
20463;DHT22;10390;53.566;9.980;2023-12-04T11:58:11;24.70;1.00
20463;DHT22;10390;53.566;9.980;2023-12-04T12:00:38;24.60;1.00
20463;DHT22;10390;53.566;9.980;2023-12-04T12:03:07;24.60;1.00
20463;DHT22;10390;53.566;9.980;2023-12-04T12:05:36;24.70;1.00
20463;DHT22;10390;53.566;9.980;2023-12-04T12:08:04;24.70;1.00
20463;DHT22;10390;53.566;9.980;2023-12-04T12:10:30;24.70;1.00
20463;DHT22;10390;53.566;9.980;2023-12-04T12:12:56;24.60;1.00
20463;DHT22;10390;53.566;9.980;2023-12-04T12:15:22;24.70;1.00
20463;DHT22;10390;53.566;9.980;2023-12-04T12:17:49;24.70;1.00
20463;DHT22;10390;53.566;9.980;2023-12-04T12:20:16;24.70;1.00
20463;DHT22;10390;53.566;9.980;2023-12-04T12:22:41;24.70;1.00
20463;DHT22;10390;53.566;9.980;2023-12-04T12:25:10;24.70;1.00
20463;DHT22;10390;53.566;9.980;2023-12-04T12:27:37;24.70;1.00
20463;DHT22;10390;53.566;9.980;2023-12-04T12:30:04;24.60;1.00
20463;DHT22;10390;53.566;9.980;2023-12-04T12:32:31;24.70;1.00
20463;DHT22;10390;53.566;9.980;2023-12-04T12:34:56;24.70;1.00
20463;DHT22;10390;53.566;9.980;2023-12-04T12:37:22;24.60;1.00
20463;DHT22;10390;53.566;9.980;2023-12-04T12:39:48;24.60;1.00
20463;DHT22;10390;53.566;9.980;2023-12-04T12:42:24;24.60;1.00
20463;DHT22;10390;53.566;9.980;2023-12-04T12:44:50;24.50;1.00
20463;DHT22;10390;53.566;9.980;2023-12-04T12:47:16;24.50;1.00
20463;DHT22;10390;53.566;9.980;2023-12-04T12:49:42;24.50;1.00
20463;DHT22;10390;53.566;9.980;2023-12-04T12:52:09;24.50;1.00
20463;DHT22;10390;53.566;9.980;2023-12-04T12:54:40;24.50;1.00
20463;DHT22;10390;53.566;9.980;2023-12-04T12:57:06;24.50;1.00
20463;DHT22;10390;53.566;9.980;2023-12-04T12:59:32;24.50;1.00
20463;DHT22;10390;53.566;9.980;2023-12-04T13:01:58;24.50;1.00
20463;DHT22;10390;53.566;9.980;2023-12-04T13:04:37;24.50;1.00
20463;DHT22;10390;53.566;9.980;2023-12-04T13:07:04;24.50;1.00
20463;DHT22;10390;53.566;9.980;2023-12-04T13:09:31;24.50;1.00
20463;DHT22;10390;53.566;9.980;2023-12-04T13:11:57;24.50;1.00
20463;DHT22;10390;53.566;9.980;2023-12-04T13:14:23;24.60;1.00
20463;DHT22;10390;53.566;9.980;2023-12-04T13:16:50;24.60;1.00
20463;DHT22;10390;53.566;9.980;2023-12-04T13:19:15;24.60;1.00
20463;DHT22;10390;53.566;9.980;2023-12-04T13:21:45;24.60;1.00
20463;DHT22;10390;53.566;9.980;2023-12-04T13:24:11;24.70;1.00
20463;DHT22;10390;53.566;9.980;2023-12-04T13:26:37;24.70;1.00
20463;DHT22;10390;53.566;9.980;2023-12-04T13:29:03;24.60;1.00
20463;DHT22;10390;53.566;9.980;2023-12-04T13:31:29;24.70;1.00
20463;DHT22;10390;53.566;9.980;2023-12-04T13:33:55;24.70;1.00
20463;DHT22;10390;53.566;9.980;2023-12-04T13:36:20;24.60;1.00
20463;DHT22;10390;53.566;9.980;2023-12-04T13:38:46;24.60;1.00
20463;DHT22;10390;53.566;9.980;2023-12-04T13:41:11;24.60;1.00
20463;DHT22;10390;53.566;9.980;2023-12-04T13:43:56;24.60;1.00
20463;DHT22;10390;53.566;9.980;2023-12-04T13:46:25;24.60;1.00
20463;DHT22;10390;53.566;9.980;2023-12-04T13:48:52;24.60;1.00
20463;DHT22;10390;53.566;9.980;2023-12-04T13:51:18;24.60;1.00
20463;DHT22;10390;53.566;9.980;2023-12-04T13:53:45;24.60;1.00
20463;DHT22;10390;53.566;9.980;2023-12-04T13:56:15;24.60;1.00
20463;DHT22;10390;53.566;9.980;2023-12-04T13:58:49;24.60;1.00
20463;DHT22;10390;53.566;9.980;2023-12-04T14:01:27;24.60;1.00
20463;DHT22;10390;53.566;9.980;2023-12-04T14:03:56;24.60;1.00
20463;DHT22;10390;53.566;9.980;2023-12-04T14:06:30;24.70;1.00
20463;DHT22;10390;53.566;9.980;2023-12-04T14:08:58;24.70;1.00
20463;DHT22;10390;53.566;9.980;2023-12-04T14:11:24;24.70;1.00
20463;DHT22;10390;53.566;9.980;2023-12-04T14:13:49;24.70;1.00
20463;DHT22;10390;53.566;9.980;2023-12-04T14:16:15;24.70;1.00
20463;DHT22;10390;53.566;9.980;2023-12-04T14:18:44;24.70;1.00
20463;DHT22;10390;53.566;9.980;2023-12-04T14:21:10;24.70;1.00
20463;DHT22;10390;53.566;9.980;2023-12-04T14:23:35;24.70;1.00
20463;DHT22;10390;53.566;9.980;2023-12-04T14:26:02;24.70;1.00
20463;DHT22;10390;53.566;9.980;2023-12-04T14:28:28;24.70;1.00
20463;DHT22;10390;53.566;9.980;2023-12-04T14:30:54;24.70;1.00
20463;DHT22;10390;53.566;9.980;2023-12-04T14:33:20;24.60;1.00
20463;DHT22;10390;53.566;9.980;2023-12-04T14:35:46;24.60;1.00
20463;DHT22;10390;53.566;9.980;2023-12-04T14:38:12;24.60;1.00
20463;DHT22;10390;53.566;9.980;2023-12-04T14:40:38;24.50;1.00
20463;DHT22;10390;53.566;9.980;2023-12-04T14:43:04;24.50;1.00
20463;DHT22;10390;53.566;9.980;2023-12-04T14:45:35;24.50;1.00
20463;DHT22;10390;53.566;9.980;2023-12-04T14:48:01;24.60;1.00
20463;DHT22;10390;53.566;9.980;2023-12-04T14:50:27;24.50;1.00
20463;DHT22;10390;53.566;9.980;2023-12-04T14:52:53;24.60;1.00
20463;DHT22;10390;53.566;9.980;2023-12-04T14:55:21;24.60;1.00
20463;DHT22;10390;53.566;9.980;2023-12-04T14:57:52;24.60;1.00
20463;DHT22;10390;53.566;9.980;2023-12-04T15:00:37;24.60;1.00
20463;DHT22;10390;53.566;9.980;2023-12-04T15:03:21;24.60;1.00
20463;DHT22;10390;53.566;9.980;2023-12-04T15:06:16;24.60;1.00
20463;DHT22;10390;53.566;9.980;2023-12-04T15:08:41;24.60;1.00
20463;DHT22;10390;53.566;9.980;2023-12-04T15:11:13;24.60;1.00
20463;DHT22;10390;53.566;9.980;2023-12-04T15:13:57;24.60;1.00
20463;DHT22;10390;53.566;9.980;2023-12-04T15:16:46;24.60;1.00
20463;DHT22;10390;53.566;9.980;2023-12-04T15:19:17;24.60;1.00
20463;DHT22;10390;53.566;9.980;2023-12-04T15:22:01;24.60;1.00
20463;DHT22;10390;53.566;9.980;2023-12-04T15:24:27;24.60;1.00
20463;DHT22;10390;53.566;9.980;2023-12-04T15:26:53;24.50;1.00
20463;DHT22;10390;53.566;9.980;2023-12-04T15:29:18;24.50;1.00
20463;DHT22;10390;53.566;9.980;2023-12-04T15:31:46;24.40;1.00
20463;DHT22;10390;53.566;9.980;2023-12-04T15:34:12;24.40;1.00
20463;DHT22;10390;53.566;9.980;2023-12-04T15:36:38;24.30;1.00
20463;DHT22;10390;53.566;9.980;2023-12-04T15:39:04;24.30;1.00
20463;DHT22;10390;53.566;9.980;2023-12-04T15:41:30;24.30;1.00
20463;DHT22;10390;53.566;9.980;2023-12-04T15:43:56;24.30;1.00
20463;DHT22;10390;53.566;9.980;2023-12-04T15:46:22;24.30;1.00
20463;DHT22;10390;53.566;9.980;2023-12-04T15:48:48;24.20;1.00